createdAt,value
2023-01-20T00:00:19.207Z,1
2023-01-20T00:02:19.199Z,1
2023-01-20T00:04:22.812Z,1
2023-01-20T00:06:19.101Z,1
2023-01-20T00:08:18.758Z,1
2023-01-20T00:10:19.040Z,1
2023-01-20T00:12:19.597Z,1
2023-01-20T00:14:25.880Z,1
2023-01-20T00:16:18.775Z,1
2023-01-20T00:18:18.712Z,1
2023-01-20T00:20:18.815Z,1
2023-01-20T00:22:19.488Z,1
2023-01-20T00:24:26.003Z,1
2023-01-20T00:26:19.028Z,1
2023-01-20T00:28:18.957Z,1
2023-01-20T00:30:19.859Z,1
2023-01-20T00:32:18.964Z,1
2023-01-20T00:34:18.874Z,1
2023-01-20T00:36:18.759Z,1
2023-01-20T00:38:18.953Z,1
2023-01-20T00:40:25.927Z,1
2023-01-20T00:42:19.343Z,1
2023-01-20T00:44:18.822Z,1
2023-01-20T00:46:19.570Z,1
2023-01-20T00:48:18.815Z,1
2023-01-20T00:50:19.318Z,1
2023-01-20T00:52:26.046Z,1
2023-01-20T00:54:19.172Z,1
2023-01-20T00:56:18.860Z,1
2023-01-20T00:58:18.710Z,1
2023-01-20T01:02:18.834Z,1
2023-01-20T01:04:18.713Z,1
2023-01-20T01:06:19.004Z,1
2023-01-20T01:08:22.645Z,1
2023-01-20T01:10:18.820Z,1
2023-01-20T01:12:19.510Z,1
2023-01-20T01:14:19.284Z,1
2023-01-20T01:16:23.003Z,1
2023-01-20T01:18:18.711Z,1
2023-01-20T01:20:18.863Z,1
2023-01-20T01:22:19.248Z,1
2023-01-20T01:24:22.312Z,1
2023-01-20T01:26:18.765Z,1
2023-01-20T01:28:18.885Z,1
2023-01-20T01:30:19.169Z,1
2023-01-20T01:32:18.929Z,1
2023-01-20T01:34:19.528Z,1
2023-01-20T01:36:21.891Z,1
2023-01-20T01:38:19.238Z,1
2023-01-20T01:40:19.059Z,1
2023-01-20T01:42:18.949Z,1
2023-01-20T01:44:25.933Z,1
2023-01-20T01:46:19.552Z,1
2023-01-20T01:48:16.097Z,1
2023-01-20T01:52:18.734Z,1
2023-01-20T01:54:18.732Z,1
2023-01-20T01:56:19.747Z,1
2023-01-20T01:58:18.842Z,1
2023-01-20T02:00:18.985Z,1
2023-01-20T02:02:19.658Z,1
2023-01-20T02:04:22.186Z,1
2023-01-20T02:06:19.251Z,1
2023-01-20T02:08:19.360Z,1
2023-01-20T02:12:18.759Z,1
2023-01-20T02:14:22.132Z,1
2023-01-20T02:16:18.863Z,1
2023-01-20T02:18:18.726Z,1
2023-01-20T02:20:22.884Z,1
2023-01-20T02:22:25.868Z,1
2023-01-20T02:24:18.708Z,1
2023-01-20T02:26:19.227Z,1
2023-01-20T02:28:22.673Z,1
2023-01-20T02:30:18.939Z,1
2023-01-20T02:32:18.948Z,1
2023-01-20T02:34:18.873Z,1
2023-01-20T02:38:18.749Z,1
2023-01-20T02:40:18.856Z,1
2023-01-20T02:42:26.431Z,1
2023-01-20T02:44:19.436Z,1
2023-01-20T02:46:19.164Z,1
2023-01-20T02:48:19.390Z,1
2023-01-20T02:50:22.881Z,1
2023-01-20T02:52:22.771Z,1
2023-01-20T02:54:18.854Z,1
2023-01-20T02:56:22.604Z,1
2023-01-20T02:58:18.747Z,1
2023-01-20T03:00:18.986Z,1
2023-01-20T03:02:19.301Z,1
2023-01-20T03:04:18.997Z,1
2023-01-20T03:06:19.360Z,1
2023-01-20T03:08:19.533Z,1
2023-01-20T03:10:22.911Z,1
2023-01-20T03:12:18.857Z,1
2023-01-20T03:14:18.964Z,1
2023-01-20T03:16:19.479Z,1
2023-01-20T03:18:19.194Z,1
2023-01-20T03:20:22.705Z,1
2023-01-20T03:22:21.964Z,1
2023-01-20T03:24:18.820Z,1
2023-01-20T03:26:19.757Z,1
2023-01-20T03:28:19.448Z,1
2023-01-20T03:30:18.743Z,1
2023-01-20T03:32:19.047Z,1
2023-01-20T03:36:19.505Z,1
2023-01-20T03:38:19.310Z,1
2023-01-20T03:40:26.119Z,1
2023-01-20T03:42:19.204Z,1
2023-01-20T03:44:18.864Z,1
2023-01-20T03:48:19.063Z,1
2023-01-20T03:50:18.843Z,1
2023-01-20T03:52:18.974Z,1
2023-01-20T03:54:25.703Z,1
2023-01-20T03:56:19.300Z,1
2023-01-20T03:58:26.203Z,1
2023-01-20T04:00:18.843Z,1
2023-01-20T04:02:26.306Z,1
2023-01-20T04:04:22.891Z,1
2023-01-20T04:06:18.764Z,1
2023-01-20T04:08:19.709Z,1
2023-01-20T04:10:19.741Z,1
2023-01-20T04:12:18.720Z,1
2023-01-20T04:14:18.879Z,1
2023-01-20T04:16:19.469Z,1
2023-01-20T04:18:18.821Z,1
2023-01-20T04:20:19.507Z,1
2023-01-20T04:22:19.020Z,1
2023-01-20T04:24:19.606Z,1
2023-01-20T04:26:18.923Z,1
2023-01-20T04:28:19.107Z,1
2023-01-20T04:30:16.820Z,1
2023-01-20T04:32:19.302Z,1
2023-01-20T04:34:19.152Z,1
2023-01-20T04:36:18.956Z,1
2023-01-20T04:38:22.933Z,1
2023-01-20T04:40:22.778Z,1
2023-01-20T04:42:22.723Z,1
2023-01-20T04:44:18.775Z,1
2023-01-20T04:46:18.768Z,1
2023-01-20T04:48:21.230Z,1
2023-01-20T04:50:22.685Z,1
2023-01-20T04:52:22.867Z,1
2023-01-20T04:54:22.917Z,1
2023-01-20T04:58:19.439Z,1
2023-01-20T05:00:18.749Z,1
2023-01-20T05:02:26.186Z,1
2023-01-20T05:04:18.740Z,1
2023-01-20T05:06:18.804Z,1
2023-01-20T05:08:22.559Z,1
2023-01-20T05:10:21.965Z,1
2023-01-20T05:12:18.874Z,1
2023-01-20T05:14:18.809Z,1
2023-01-20T05:16:18.957Z,1
2023-01-20T05:18:26.020Z,1
2023-01-20T05:20:18.794Z,1
2023-01-20T05:22:19.697Z,1
2023-01-20T05:24:18.947Z,1
2023-01-20T05:26:19.591Z,1
2023-01-20T05:28:22.754Z,1
2023-01-20T05:30:19.573Z,1
2023-01-20T05:32:19.002Z,1
2023-01-20T05:34:19.168Z,1
2023-01-20T05:36:18.849Z,1
2023-01-20T05:38:18.864Z,1
2023-01-20T05:40:26.083Z,1
2023-01-20T05:42:19.247Z,1
2023-01-20T05:44:19.307Z,1
2023-01-20T05:46:19.010Z,1
2023-01-20T05:48:18.917Z,1
2023-01-20T05:50:19.429Z,1
2023-01-20T05:52:19.135Z,1
2023-01-20T05:54:19.258Z,1
2023-01-20T05:56:19.254Z,1
2023-01-20T05:58:19.253Z,1
2023-01-20T06:00:18.928Z,1
2023-01-20T06:02:19.948Z,1
2023-01-20T06:04:18.871Z,1
2023-01-20T06:06:18.770Z,1
2023-01-20T06:08:19.777Z,1
2023-01-20T06:10:18.920Z,1
2023-01-20T06:12:26.095Z,1
2023-01-20T06:14:19.321Z,0
2023-01-20T06:16:18.817Z,0
2023-01-20T06:18:18.886Z,0
2023-01-20T06:20:19.242Z,0.1
2023-01-20T06:22:19.506Z,0.1
2023-01-20T06:24:19.223Z,0.2
2023-01-20T06:26:19.463Z,0.3
2023-01-20T06:28:18.932Z,0.4
2023-01-20T06:30:22.709Z,0.6
2023-01-20T06:32:18.224Z,0.9
2023-01-20T06:34:22.966Z,1.3
2023-01-20T06:36:18.797Z,1.7
2023-01-20T06:38:19.773Z,2.5
2023-01-20T06:40:16.102Z,2.6
2023-01-20T06:42:22.910Z,4.5
2023-01-20T06:44:18.805Z,5.8
2023-01-20T06:46:22.711Z,7.4
2023-01-20T06:48:16.973Z,10
2023-01-20T06:50:26.097Z,14.9
2023-01-20T06:52:18.861Z,20.1
2023-01-20T06:54:19.030Z,25.8
2023-01-20T06:56:23.052Z,33.1
2023-01-20T06:58:22.633Z,42.5
2023-01-20T07:00:19.413Z,51.9
2023-01-20T07:02:18.959Z,66.7
2023-01-20T07:04:22.932Z,81.5
2023-01-20T07:06:22.739Z,104.6
2023-01-20T07:08:23.090Z,127.7
2023-01-20T07:10:19.236Z,156
2023-01-20T07:12:19.381Z,181.3
2023-01-20T07:14:19.123Z,210.6
2023-01-20T07:16:19.466Z,232.8
2023-01-20T07:18:19.594Z,257.2
2023-01-20T07:20:18.938Z,284.3
2023-01-20T07:22:18.931Z,314.2
2023-01-20T07:24:19.359Z,347.2
2023-01-20T07:26:19.038Z,365
2023-01-20T07:28:19.375Z,403.4
2023-01-20T07:30:23.063Z,424.1
2023-01-20T07:32:18.953Z,468.7
2023-01-20T07:34:22.789Z,518
2023-01-20T07:36:22.952Z,544.6
2023-01-20T07:38:19.950Z,572.5
2023-01-20T07:40:19.386Z,601.8
2023-01-20T07:42:19.229Z,632.7
2023-01-20T07:44:18.895Z,632.7
2023-01-20T07:46:19.367Z,665.1
2023-01-20T07:48:26.039Z,665.1
2023-01-20T07:50:19.166Z,699.2
2023-01-20T07:52:19.492Z,735.1
2023-01-20T07:54:19.112Z,772.8
2023-01-20T07:56:19.007Z,812.4
2023-01-20T07:58:18.881Z,897.8
2023-01-20T08:00:22.948Z,1096.6
2023-01-20T08:02:18.880Z,1152.9
2023-01-20T08:04:22.750Z,1212
2023-01-20T08:06:19.277Z,1274.1
2023-01-20T08:08:26.143Z,1274.1
2023-01-20T08:10:21.465Z,1339.4
2023-01-20T08:12:25.825Z,1339.4
2023-01-20T08:14:25.391Z,1408.1
2023-01-20T08:16:18.820Z,1480.3
2023-01-20T08:18:18.997Z,1480.3
2023-01-20T08:20:19.818Z,1556.2
2023-01-20T08:22:18.933Z,1636
2023-01-20T08:24:19.345Z,1719.9
2023-01-20T08:26:16.710Z,1719.9
2023-01-20T08:28:19.499Z,1900.7
2023-01-20T08:30:19.661Z,1998.2
2023-01-20T08:32:19.191Z,2100.6
2023-01-20T08:34:19.045Z,2208.3
2023-01-20T08:36:19.261Z,2208.3
2023-01-20T08:38:26.176Z,2321.6
2023-01-20T08:40:22.741Z,2440.6
2023-01-20T08:42:19.187Z,2440.6
2023-01-20T08:44:18.823Z,2440.6
2023-01-20T08:46:19.083Z,2321.6
2023-01-20T08:48:26.163Z,2321.6
2023-01-20T08:50:22.867Z,2208.3
2023-01-20T08:52:22.563Z,2208.3
2023-01-20T08:54:22.653Z,2321.6
2023-01-20T08:56:18.925Z,2321.6
2023-01-20T08:58:19.460Z,2321.6
2023-01-20T09:00:22.036Z,2321.6
2023-01-20T09:02:19.412Z,2321.6
2023-01-20T09:04:18.857Z,2321.6
2023-01-20T09:06:23.025Z,2100.6
2023-01-20T09:08:23.062Z,1900.7
2023-01-20T09:10:18.801Z,1636
2023-01-20T09:12:22.785Z,1480.3
2023-01-20T09:14:19.125Z,1480.3
2023-01-20T09:16:19.688Z,1636
2023-01-20T09:18:19.444Z,1900.7
2023-01-20T09:20:26.243Z,2100.6
2023-01-20T09:22:19.193Z,2321.6
2023-01-20T09:24:18.919Z,2565.7
2023-01-20T09:26:34.152Z,2835.6
2023-01-20T09:28:22.620Z,2981
2023-01-20T09:30:22.947Z,3463.4
2023-01-20T09:32:19.850Z,3827.6
2023-01-20T09:34:19.747Z,4447.1
2023-01-20T09:36:27.506Z,4675.1
2023-01-20T09:38:18.835Z,5431.7
2023-01-20T09:40:22.794Z,5710.1
2023-01-20T09:42:17.602Z,5710.1
2023-01-20T09:44:26.051Z,6002.9
2023-01-20T09:46:19.543Z,6310.7
2023-01-20T09:48:19.484Z,6002.9
2023-01-20T09:50:25.936Z,6634.2
2023-01-20T09:52:18.993Z,6974.4
2023-01-20T09:54:25.576Z,7707.9
2023-01-20T09:56:19.545Z,7707.9
2023-01-20T09:58:19.621Z,7332
2023-01-20T10:00:19.587Z,8103.1
2023-01-20T10:02:22.558Z,8103.1
2023-01-20T10:04:18.911Z,8955.3
2023-01-20T10:06:22.954Z,8103.1
2023-01-20T10:08:19.002Z,8518.5
2023-01-20T10:10:23.008Z,8518.5
2023-01-20T10:12:26.099Z,8955.3
2023-01-20T10:14:18.950Z,8103.1
2023-01-20T10:16:19.494Z,7707.9
2023-01-20T10:18:19.737Z,6634.2
2023-01-20T10:22:16.637Z,5431.7
2023-01-20T10:24:19.030Z,5166.8
2023-01-20T10:26:19.638Z,4914.8
2023-01-20T10:28:22.769Z,4447.1
2023-01-20T10:30:19.295Z,4230.2
2023-01-20T10:32:19.050Z,4023.9
2023-01-20T10:34:18.943Z,4023.9
2023-01-20T10:36:19.158Z,3827.6
2023-01-20T10:38:19.728Z,3827.6
2023-01-20T10:40:19.154Z,3827.6
2023-01-20T10:42:19.534Z,3641
2023-01-20T10:44:20.467Z,3641
2023-01-20T10:46:22.952Z,4023.9
2023-01-20T10:48:26.134Z,4023.9
2023-01-20T10:50:22.639Z,4230.2
2023-01-20T10:52:26.004Z,4675.1
2023-01-20T10:54:18.943Z,5166.8
2023-01-20T10:56:18.928Z,5166.8
2023-01-20T10:58:19.776Z,5710.1
2023-01-20T11:00:19.077Z,5710.1
2023-01-20T11:02:19.366Z,5710.1
2023-01-20T11:04:18.909Z,6002.9
2023-01-20T11:06:19.348Z,6310.7
2023-01-20T11:10:19.520Z,6974.4
2023-01-20T11:12:18.892Z,6634.2
2023-01-20T11:14:18.937Z,6002.9
2023-01-20T11:16:22.850Z,6310.7
2023-01-20T11:18:19.489Z,6634.2
2023-01-20T11:20:19.634Z,6634.2
2023-01-20T11:22:18.920Z,6002.9
2023-01-20T11:24:19.170Z,6002.9
2023-01-20T11:26:21.375Z,6634.2
2023-01-20T11:28:19.173Z,6634.2
2023-01-20T11:30:19.382Z,6634.2
2023-01-20T11:32:19.701Z,6634.2
2023-01-20T11:34:22.786Z,6634.2
2023-01-20T11:36:16.200Z,6634.2
2023-01-20T11:38:18.950Z,6310.7
2023-01-20T11:40:23.018Z,6310.7
2023-01-20T11:42:18.963Z,6310.7
2023-01-20T11:44:19.801Z,5431.7
2023-01-20T11:46:19.163Z,4023.9
2023-01-20T11:48:19.471Z,3294.5
2023-01-20T11:50:18.962Z,3827.6
2023-01-20T11:52:19.788Z,4914.8
2023-01-20T11:54:19.543Z,6002.9
2023-01-20T11:56:23.035Z,6310.7
2023-01-20T11:58:18.937Z,6634.2
2023-01-20T12:00:22.062Z,7332
2023-01-20T12:02:19.179Z,7707.9
2023-01-20T12:04:19.788Z,7707.9
2023-01-20T12:06:18.933Z,7332
2023-01-20T12:08:19.339Z,6974.4
2023-01-20T12:10:19.229Z,6634.2
2023-01-20T12:12:19.179Z,5710.1
2023-01-20T12:14:21.135Z,4914.8
2023-01-20T12:16:19.024Z,4675.1
2023-01-20T12:18:19.936Z,4023.9
2023-01-20T12:20:19.269Z,3827.6
2023-01-20T12:22:25.222Z,4230.2
2023-01-20T12:24:19.027Z,4675.1
2023-01-20T12:26:23.043Z,5166.8
2023-01-20T12:28:19.537Z,5431.7
2023-01-20T12:30:22.611Z,5431.7
2023-01-20T12:34:18.927Z,5710.1
2023-01-20T12:36:19.051Z,6310.7
2023-01-20T12:38:19.225Z,6310.7
2023-01-20T12:40:22.136Z,6002.9
2023-01-20T12:42:19.800Z,6002.9
2023-01-20T12:44:19.317Z,5710.1
2023-01-20T12:46:19.296Z,6002.9
2023-01-20T12:48:19.244Z,6310.7
2023-01-20T12:50:26.155Z,6634.2
2023-01-20T12:52:19.437Z,8955.3
2023-01-20T12:54:18.857Z,6310.7
2023-01-20T12:56:18.960Z,4230.2
2023-01-20T13:00:19.308Z,3463.4
2023-01-20T13:02:19.407Z,2835.6
2023-01-20T13:04:26.088Z,2565.7
2023-01-20T13:06:18.965Z,2321.6
2023-01-20T13:08:19.225Z,2208.3
2023-01-20T13:10:18.924Z,2208.3
2023-01-20T13:12:19.533Z,2321.6
2023-01-20T13:14:23.118Z,2440.6
2023-01-20T13:16:22.995Z,2565.7
2023-01-20T13:18:19.498Z,3294.5
2023-01-20T13:20:19.187Z,3294.5
2023-01-20T13:22:18.951Z,2981
2023-01-20T13:24:19.704Z,2981
2023-01-20T13:26:19.377Z,3294.5
2023-01-20T13:28:18.929Z,3133.8
2023-01-20T13:30:23.108Z,3641
2023-01-20T13:32:19.094Z,3827.6
2023-01-20T13:34:19.177Z,4023.9
2023-01-20T13:36:19.572Z,4023.9
2023-01-20T13:38:19.195Z,3641
2023-01-20T13:40:19.495Z,3463.4
2023-01-20T13:42:19.222Z,3294.5
2023-01-20T13:44:19.418Z,2981
2023-01-20T13:46:23.089Z,2981
2023-01-20T13:48:19.492Z,2981
2023-01-20T13:50:19.071Z,2835.6
2023-01-20T13:52:19.207Z,2565.7
2023-01-20T13:54:23.014Z,2565.7
2023-01-20T13:56:23.075Z,2697.3
2023-01-20T13:58:18.942Z,2697.3
2023-01-20T14:00:19.822Z,2565.7
2023-01-20T14:02:19.206Z,2440.6
2023-01-20T14:04:19.427Z,2440.6
2023-01-20T14:06:19.648Z,2321.6
2023-01-20T14:08:19.337Z,2208.3
2023-01-20T14:10:19.261Z,2100.6
2023-01-20T14:12:18.916Z,1900.7
2023-01-20T14:14:19.203Z,1719.9
2023-01-20T14:16:19.367Z,1636
2023-01-20T14:18:19.360Z,1480.3
2023-01-20T14:20:19.378Z,1408.1
2023-01-20T14:22:19.604Z,1339.4
2023-01-20T14:24:18.926Z,1408.1
2023-01-20T14:26:19.574Z,1480.3
2023-01-20T14:28:18.989Z,1408.1
2023-01-20T14:30:19.312Z,1408.1
2023-01-20T14:32:23.150Z,1339.4
2023-01-20T14:36:18.933Z,1152.9
2023-01-20T14:38:26.364Z,992.3
2023-01-20T14:40:26.077Z,854.1
2023-01-20T14:42:19.162Z,699.2
2023-01-20T14:44:19.669Z,665.1
2023-01-20T14:46:23.096Z,601.8
2023-01-20T14:48:28.452Z,572.5
2023-01-20T14:50:19.961Z,572.5
2023-01-20T14:52:19.247Z,601.8
2023-01-20T14:54:19.036Z,572.5
2023-01-20T14:56:26.365Z,572.5
2023-01-20T14:58:19.635Z,544.6
2023-01-20T15:00:19.764Z,572.5
2023-01-20T15:02:19.781Z,601.8
2023-01-20T15:04:19.755Z,632.7
2023-01-20T15:06:23.035Z,699.2
2023-01-20T15:08:18.989Z,665.1
2023-01-20T15:10:19.042Z,632.7
2023-01-20T15:12:19.081Z,518
2023-01-20T15:14:19.513Z,424.1
2023-01-20T15:16:18.977Z,330.3
2023-01-20T15:18:19.023Z,314.2
2023-01-20T15:20:19.494Z,298.9
2023-01-20T15:22:19.052Z,270.4
2023-01-20T15:24:19.449Z,232.8
2023-01-20T15:26:19.586Z,210.6
2023-01-20T15:28:26.312Z,172.4
2023-01-20T15:30:26.349Z,156
2023-01-20T15:32:19.097Z,148.4
2023-01-20T15:34:21.915Z,127.7
2023-01-20T15:36:23.085Z,115.6
2023-01-20T15:38:20.596Z,104.6
2023-01-20T15:40:19.655Z,99.5
2023-01-20T15:42:19.162Z,94.6
2023-01-20T15:44:19.092Z,99.5
2023-01-20T15:46:19.615Z,94.6
2023-01-20T15:48:19.425Z,90
2023-01-20T15:50:19.340Z,63.4
2023-01-20T15:52:19.092Z,54.6
2023-01-20T15:54:19.533Z,54.6
2023-01-20T15:56:19.221Z,54.6
2023-01-20T15:58:26.324Z,51.9
2023-01-20T16:00:18.960Z,44.7
2023-01-20T16:02:19.391Z,34.8
2023-01-20T16:04:19.111Z,25.8
2023-01-20T16:06:18.985Z,21.1
2023-01-20T16:08:19.097Z,16.4
2023-01-20T16:10:19.592Z,13.5
2023-01-20T16:12:19.223Z,11
2023-01-20T16:14:26.136Z,9
2023-01-20T16:16:19.275Z,7
2023-01-20T16:18:19.293Z,5.2
2023-01-20T16:20:19.554Z,3.9
2023-01-20T16:22:22.835Z,2.7
2023-01-20T16:24:19.502Z,1.9
2023-01-20T16:26:22.133Z,1.3
2023-01-20T16:28:19.209Z,0.9
2023-01-20T16:30:19.562Z,0.6
2023-01-20T16:32:22.701Z,0.4
2023-01-20T16:34:18.935Z,0.3
2023-01-20T16:36:22.992Z,0.3
2023-01-20T16:38:19.041Z,0.2
2023-01-20T16:40:19.985Z,0.1
2023-01-20T16:42:23.285Z,0.3
2023-01-20T16:44:19.010Z,0.1
2023-01-20T16:46:23.037Z,0
2023-01-20T16:48:23.008Z,0
2023-01-20T16:50:22.787Z,0
2023-01-20T16:52:19.138Z,0
2023-01-20T16:54:22.937Z,0
2023-01-20T16:56:19.581Z,0
2023-01-20T16:58:19.090Z,0
2023-01-20T17:00:19.557Z,0
2023-01-20T17:02:19.288Z,0
2023-01-20T17:04:19.061Z,0
2023-01-20T17:06:19.805Z,0
2023-01-20T17:08:18.999Z,0
2023-01-20T17:10:19.092Z,0
2023-01-20T17:12:26.160Z,0
2023-01-20T17:14:19.589Z,0
2023-01-20T17:16:19.250Z,0
2023-01-20T17:18:19.831Z,0
2023-01-20T17:20:19.011Z,0
2023-01-20T17:22:19.899Z,0
2023-01-20T17:24:18.887Z,0
2023-01-20T17:26:26.388Z,0
2023-01-20T17:28:19.434Z,0
2023-01-20T17:30:19.723Z,0
2023-01-20T17:34:19.128Z,1
2023-01-20T17:36:22.953Z,0
2023-01-20T17:38:22.796Z,0
2023-01-20T17:40:22.865Z,0
2023-01-20T17:42:19.732Z,0
2023-01-20T17:44:19.530Z,1
2023-01-20T17:46:22.952Z,1
2023-01-20T17:48:19.314Z,1
2023-01-20T17:50:22.911Z,1
2023-01-20T17:52:18.951Z,1
2023-01-20T17:54:26.160Z,1
2023-01-20T17:56:16.451Z,1
2023-01-20T17:58:19.024Z,1
2023-01-20T18:00:19.339Z,1
2023-01-20T18:02:19.171Z,1
2023-01-20T18:04:22.879Z,1
2023-01-20T18:06:19.460Z,1
2023-01-20T18:08:19.907Z,1
2023-01-20T18:10:17.079Z,1
2023-01-20T18:12:26.101Z,1
2023-01-20T18:14:19.089Z,1
2023-01-20T18:16:19.090Z,1
2023-01-20T18:20:19.034Z,1
2023-01-20T18:24:22.992Z,1
2023-01-20T18:26:19.341Z,1
2023-01-20T18:28:19.069Z,1
2023-01-20T18:30:26.256Z,1
2023-01-20T18:33:53.432Z,1
2023-01-20T18:35:51.212Z,1
2023-01-20T18:37:55.421Z,1
2023-01-20T18:39:51.557Z,1
2023-01-20T18:41:55.523Z,1
2023-01-20T18:43:51.974Z,1
2023-01-20T18:45:51.189Z,1
2023-01-20T18:47:51.573Z,1
2023-01-20T18:49:56.396Z,1
2023-01-20T18:51:51.255Z,1
2023-01-20T18:53:52.123Z,1
2023-01-20T18:55:55.541Z,1
2023-01-20T18:57:52.491Z,1
2023-01-20T18:59:52.223Z,1
2023-01-20T19:01:55.323Z,1
2023-01-20T19:03:52.083Z,1
2023-01-20T19:05:55.576Z,1
2023-01-20T19:07:51.061Z,1
2023-01-20T19:09:54.020Z,1
2023-01-20T19:11:59.367Z,1
2023-01-20T19:13:51.562Z,1
2023-01-20T19:15:55.652Z,1
2023-01-20T19:17:51.673Z,1
2023-01-20T19:19:51.496Z,1
2023-01-20T19:21:55.709Z,1
2023-01-20T19:23:51.321Z,1
2023-01-20T19:25:58.636Z,1
2023-01-20T19:27:52.283Z,1
2023-01-20T19:29:51.198Z,1
2023-01-20T19:31:55.636Z,1
2023-01-20T19:33:52.316Z,1
2023-01-20T19:35:55.384Z,1
2023-01-20T19:37:52.499Z,1
2023-01-20T19:39:52.120Z,1
2023-01-20T19:41:51.705Z,1
2023-01-20T19:43:51.234Z,1
2023-01-20T19:45:54.468Z,1
2023-01-20T19:47:52.255Z,1
2023-01-20T19:49:51.441Z,1
2023-01-20T19:51:53.841Z,1
2023-01-20T19:53:55.758Z,1
2023-01-20T19:55:52.605Z,1
2023-01-20T19:57:55.660Z,1
2023-01-20T19:59:51.593Z,1
2023-01-20T20:01:50.999Z,1
2023-01-20T20:03:55.835Z,1
2023-01-20T20:05:51.684Z,1
2023-01-20T20:07:55.089Z,1
2023-01-20T20:11:51.255Z,1
2023-01-20T20:13:57.034Z,1
2023-01-20T20:15:52.111Z,1
2023-01-20T20:17:55.402Z,1
2023-01-20T20:19:51.655Z,1
2023-01-20T20:21:51.816Z,1
2023-01-20T20:23:55.628Z,1
2023-01-20T20:25:51.056Z,1
2023-01-20T20:27:55.922Z,1
2023-01-20T20:29:52.468Z,1
2023-01-20T20:31:59.552Z,1
2023-01-20T20:33:58.775Z,1
2023-01-20T20:35:51.705Z,1
2023-01-20T20:37:56.560Z,1
2023-01-20T20:39:52.455Z,1
2023-01-20T20:41:56.141Z,1
2023-01-20T20:43:51.346Z,1
2023-01-20T20:45:52.320Z,1
2023-01-20T20:47:51.634Z,1
2023-01-20T20:49:55.478Z,1
2023-01-20T20:51:55.639Z,1
2023-01-20T20:53:51.791Z,1
2023-01-20T20:55:51.783Z,1
2023-01-20T20:57:52.688Z,1
2023-01-20T20:59:59.068Z,1
2023-01-20T21:01:51.963Z,1
2023-01-20T21:03:52.312Z,1
2023-01-20T21:05:51.171Z,1
2023-01-20T21:07:51.655Z,1
2023-01-20T21:09:52.238Z,1
2023-01-20T21:11:51.230Z,1
2023-01-20T21:13:55.545Z,1
2023-01-20T21:15:55.695Z,1
2023-01-20T21:17:51.794Z,1
2023-01-20T21:19:52.510Z,1
2023-01-20T21:21:52.348Z,1
2023-01-20T21:23:51.228Z,1
2023-01-20T21:25:52.007Z,1
2023-01-20T21:27:52.400Z,1
2023-01-20T21:29:51.615Z,1
2023-01-20T21:31:52.448Z,1
2023-01-20T21:33:51.674Z,1
2023-01-20T21:35:51.738Z,1
2023-01-20T21:37:51.493Z,1
2023-01-20T21:39:51.170Z,1
2023-01-20T21:41:55.620Z,1
2023-01-20T21:45:52.227Z,1
2023-01-20T21:47:52.558Z,1
2023-01-20T21:49:51.225Z,1
2023-01-20T21:51:51.829Z,1
2023-01-20T21:53:51.436Z,1
2023-01-20T21:55:52.028Z,1
2023-01-20T21:57:51.826Z,1
2023-01-20T21:59:58.572Z,1
2023-01-20T22:01:52.307Z,1
2023-01-20T22:03:51.055Z,1
2023-01-20T22:05:51.816Z,1
2023-01-20T22:07:52.351Z,1
2023-01-20T22:09:58.852Z,1
2023-01-20T22:11:55.569Z,1
2023-01-20T22:13:52.226Z,1
2023-01-20T22:15:55.611Z,1
2023-01-20T22:17:50.931Z,1
2023-01-20T22:19:51.143Z,1
2023-01-20T22:21:51.234Z,1
2023-01-20T22:23:51.057Z,1
2023-01-20T22:25:51.319Z,1
2023-01-20T22:27:54.719Z,1
2023-01-20T22:29:51.093Z,1
2023-01-20T22:31:58.935Z,1
2023-01-20T22:33:51.844Z,1
2023-01-20T22:35:51.444Z,1
2023-01-20T22:37:51.279Z,1
2023-01-20T22:39:52.445Z,1
2023-01-20T22:41:51.073Z,1
2023-01-20T22:43:52.307Z,1
2023-01-20T22:45:52.405Z,1
2023-01-20T22:47:55.030Z,1
2023-01-20T22:49:58.665Z,1
2023-01-20T22:51:51.054Z,1
2023-01-20T22:53:55.712Z,1
2023-01-20T22:56:00.723Z,1
2023-01-20T22:57:51.739Z,1
2023-01-20T22:59:51.073Z,1
2023-01-20T23:01:52.341Z,1
2023-01-20T23:03:55.665Z,1
2023-01-20T23:05:55.539Z,1
2023-01-20T23:07:51.455Z,1
2023-01-20T23:09:55.635Z,1
2023-01-20T23:11:50.935Z,1
2023-01-20T23:13:52.189Z,1
2023-01-20T23:15:52.563Z,1
2023-01-20T23:17:55.695Z,1
2023-01-20T23:19:51.631Z,1
2023-01-20T23:21:51.873Z,1
2023-01-20T23:23:52.228Z,1
2023-01-20T23:25:51.568Z,1
2023-01-20T23:27:55.309Z,1
2023-01-20T23:29:51.216Z,1
2023-01-20T23:31:51.067Z,1
2023-01-20T23:33:51.998Z,1
2023-01-20T23:35:51.110Z,1
2023-01-20T23:37:51.289Z,1
2023-01-20T23:39:58.856Z,1
2023-01-20T23:41:50.925Z,1
2023-01-20T23:43:55.641Z,1
2023-01-20T23:45:55.720Z,1
2023-01-20T23:47:51.593Z,1
2023-01-20T23:49:51.645Z,1
2023-01-20T23:51:51.039Z,1
2023-01-20T23:53:51.105Z,1
2023-01-20T23:55:52.204Z,1
2023-01-20T23:57:51.777Z,1
2023-01-20T23:59:52.288Z,1
